Time;durP1;ratioP1;P1;durP2;ratioP2;P2;SDS_P1;SDS_P2;PMS_P1;PMS_P2;Temp;Humidity;BMP_temperature;BMP_pressure;BME280_temperature;BME280_humidity;BME280_pressure;Samples;Min_cycle;Max_cycle;Signal;HPM_P1;HPM_P2
2021/01/13 00:01:42;;;;;;;99.70;43.33;;;13.00;2201.60;;;;;;5036011;28;20049;-59
2021/01/13 00:04:09;;;;;;;101.82;43.60;;;12.90;2201.60;;;;;;5036079;28;20030;-59
2021/01/13 00:06:35;;;;;;;101.65;44.42;;;13.00;2201.60;;;;;;5035780;28;20048;-60
2021/01/13 00:09:00;;;;;;;114.78;48.35;;;12.90;2201.60;;;;;;5036042;28;20030;-59
2021/01/13 00:11:27;;;;;;;123.63;51.15;;;12.90;2201.60;;;;;;5035950;28;20091;-60
2021/01/13 00:13:53;;;;;;;112.65;46.25;;;13.00;2201.60;;;;;;5035897;28;20025;-60
2021/01/13 00:16:19;;;;;;;93.90;39.70;;;13.10;2201.60;;;;;;5035830;28;20025;-60
2021/01/13 00:18:47;;;;;;;110.35;44.75;;;13.20;2201.60;;;;;;5035742;28;20494;-59
2021/01/13 00:21:13;;;;;;;102.50;42.88;;;13.20;2201.60;;;;;;5035669;28;20108;-60
2021/01/13 00:23:45;;;;;;;98.00;39.38;;;13.20;2201.60;;;;;;5035311;28;20030;-59
2021/01/13 00:26:18;;;;;;;89.80;37.97;;;13.30;2201.60;;;;;;5035563;28;20030;-60
2021/01/13 00:28:44;;;;;;;96.57;39.92;;;13.30;2201.60;;;;;;5035566;28;20037;-59
2021/01/13 00:31:12;;;;;;;105.25;43.72;;;13.20;2201.60;;;;;;5035275;28;20028;-63
2021/01/13 00:33:37;;;;;;;107.90;45.00;;;13.20;2201.60;;;;;;5017559;28;20033;-60
2021/01/13 00:36:03;;;;;;;109.15;46.70;;;13.20;2201.60;;;;;;5035488;28;20109;-59
2021/01/13 00:38:29;;;;;;;112.13;45.72;;;13.20;2201.60;;;;;;5035026;28;20533;-60
2021/01/13 00:40:55;;;;;;;104.35;43.85;;;13.10;2201.60;;;;;;5035337;28;20021;-59
2021/01/13 00:43:20;;;;;;;96.47;41.10;;;13.10;2201.60;;;;;;5034067;28;20382;-60
2021/01/13 00:45:46;;;;;;;89.85;38.00;;;13.10;2201.60;;;;;;5035327;28;20148;-59
2021/01/13 00:48:12;;;;;;;87.35;36.17;;;13.10;2201.60;;;;;;5034945;28;20029;-59
2021/01/13 00:50:37;;;;;;;95.80;40.40;;;13.10;2201.60;;;;;;5035315;28;20025;-60
2021/01/13 00:53:07;;;;;;;87.72;37.22;;;13.20;2201.60;;;;;;5035133;28;20559;-59
2021/01/13 00:55:32;;;;;;;89.15;38.53;;;13.20;2201.60;;;;;;5035111;28;20036;-60
2021/01/13 00:57:58;;;;;;;94.28;39.65;;;13.20;2201.60;;;;;;5035127;28;20367;-60
2021/01/13 01:00:24;;;;;;;89.60;39.03;;;13.20;2201.60;;;;;;5017130;28;20079;-60
2021/01/13 01:02:50;;;;;;;92.40;39.10;;;13.20;2201.60;;;;;;5034723;28;20032;-59
2021/01/13 01:05:16;;;;;;;92.47;39.85;;;13.20;2201.60;;;;;;5034592;28;20040;-60
2021/01/13 01:07:42;;;;;;;85.90;38.15;;;13.10;2201.60;;;;;;5034883;28;20037;-60
2021/01/13 01:10:19;;;;;;;86.15;38.58;;;13.20;2201.60;;;;;;5034866;28;20048;-60
2021/01/13 01:12:45;;;;;;;88.07;38.30;;;13.20;2201.60;;;;;;5032839;28;20053;-59
2021/01/13 01:15:12;;;;;;;90.18;38.58;;;13.20;2201.60;;;;;;5034698;28;20056;-59
2021/01/13 01:17:37;;;;;;;89.80;38.45;;;13.10;2201.60;;;;;;5016343;28;20025;-59
2021/01/13 01:20:04;;;;;;;92.03;37.63;;;13.30;2201.60;;;;;;5016446;28;20034;-59
2021/01/13 01:22:29;;;;;;;83.38;35.53;;;13.20;2201.60;;;;;;5034358;28;20030;-59
2021/01/13 01:24:55;;;;;;;88.38;37.13;;;13.20;2201.60;;;;;;5034551;28;20071;-60
2021/01/13 01:27:21;;;;;;;87.00;37.33;;;13.10;2201.60;;;;;;5034456;28;20414;-59
2021/01/13 01:29:47;;;;;;;82.18;35.28;;;13.10;2201.60;;;;;;5034305;28;20025;-59
2021/01/13 01:32:12;;;;;;;87.90;39.10;;;13.10;2201.60;;;;;;5034249;28;20084;-59
2021/01/13 01:34:38;;;;;;;80.05;34.58;;;13.10;2201.60;;;;;;5034358;28;20022;-59
2021/01/13 01:37:03;;;;;;;83.05;34.35;;;13.00;2201.60;;;;;;5034490;28;20427;-60
2021/01/13 01:39:29;;;;;;;77.97;35.95;;;13.10;2201.60;;;;;;5034274;28;20029;-59
2021/01/13 01:41:55;;;;;;;81.63;36.38;;;13.10;2201.60;;;;;;5034178;28;20029;-61
2021/01/13 01:44:20;;;;;;;88.28;36.38;;;13.00;2201.60;;;;;;5034225;28;20032;-59
2021/01/13 01:46:48;;;;;;;89.97;38.97;;;13.00;2201.60;;;;;;5034035;28;20044;-59
2021/01/13 01:49:14;;;;;;;88.88;37.75;;;13.00;2201.60;;;;;;5033968;28;20487;-60
2021/01/13 01:51:57;;;;;;;83.20;36.05;;;12.90;2201.60;;;;;;5033918;28;20099;-60
2021/01/13 01:54:24;;;;;;;80.65;35.72;;;0.00;2201.60;;;;;;5033876;28;20037;-60
2021/01/13 01:56:53;;;;;;;82.55;35.33;;;0.00;2201.60;;;;;;5033971;28;20471;-59
2021/01/13 01:59:46;;;;;;;88.25;39.22;;;0.10;2201.60;;;;;;5033942;28;20103;-60
2021/01/13 02:02:14;;;;;;;82.00;35.40;;;0.20;2201.60;;;;;;5033445;28;20095;-59
2021/01/13 02:04:43;;;;;;;77.88;35.55;;;0.20;2201.60;;;;;;5033340;28;20026;-59
2021/01/13 02:07:09;;;;;;;83.22;35.00;;;0.20;2201.60;;;;;;5033895;28;20479;-59
2021/01/13 02:09:36;;;;;;;82.35;36.33;;;0.30;2201.60;;;;;;5033921;28;20036;-59
2021/01/13 02:12:13;;;;;;;82.55;35.08;;;0.30;2201.60;;;;;;5034274;28;20035;-60
2021/01/13 02:14:43;;;;;;;82.63;36.28;;;0.30;2201.60;;;;;;5033621;28;20053;-59
2021/01/13 02:17:10;;;;;;;77.30;34.50;;;0.30;2201.60;;;;;;5033755;28;20040;-60
2021/01/13 02:19:48;;;;;;;90.63;40.08;;;0.30;2201.60;;;;;;5033782;28;20033;-60
2021/01/13 02:22:25;;;;;;;83.53;37.40;;;0.30;2201.60;;;;;;5033502;28;20083;-59
2021/01/13 02:25:11;;;;;;;81.72;35.75;;;0.30;2201.60;;;;;;5033525;28;20036;-59
2021/01/13 02:27:58;;;;;;;77.72;36.28;;;0.40;2201.60;;;;;;5033372;28;20041;-60
2021/01/13 02:30:52;;;;;;;84.88;36.97;;;0.30;2201.60;;;;;;5033526;28;20427;-59
2021/01/13 02:33:36;;;;;;;85.93;37.80;;;0.30;2201.60;;;;;;5033325;28;20071;-59
2021/01/13 02:36:31;;;;;;;87.95;37.42;;;0.20;2201.60;;;;;;5033256;28;20040;-59
2021/01/13 02:38:59;;;;;;;84.32;38.28;;;0.30;2201.60;;;;;;5033521;28;20490;-59
2021/01/13 02:41:35;;;;;;;89.90;40.85;;;0.40;2201.60;;;;;;5033589;28;20371;-60
2021/01/13 02:44:09;;;;;;;90.25;40.70;;;0.40;2201.60;;;;;;5033347;28;20491;-59
2021/01/13 02:46:53;;;;;;;86.70;37.45;;;0.50;2201.60;;;;;;5033568;28;20071;-59
2021/01/13 02:49:24;;;;;;;83.90;36.20;;;0.50;2201.60;;;;;;5033573;28;20510;-60
2021/01/13 02:51:55;;;;;;;81.28;34.83;;;0.50;2201.60;;;;;;5033204;28;20037;-59
2021/01/13 02:54:37;;;;;;;80.93;35.00;;;0.50;2201.60;;;;;;5033502;28;20031;-60
2021/01/13 02:57:15;;;;;;;85.28;38.20;;;0.50;2201.60;;;;;;5033451;28;20135;-59
2021/01/13 02:59:44;;;;;;;85.90;37.90;;;0.50;2201.60;;;;;;5033396;28;20124;-60
2021/01/13 03:02:10;;;;;;;85.18;37.55;;;0.50;2201.60;;;;;;5033384;28;20017;-59
2021/01/13 03:04:41;;;;;;;87.18;37.53;;;0.40;2201.60;;;;;;5033199;28;20036;-60
2021/01/13 03:07:15;;;;;;;90.55;40.03;;;0.40;2201.60;;;;;;5035102;28;20037;-60
2021/01/13 03:09:49;;;;;;;90.57;39.35;;;0.30;2201.60;;;;;;5037038;28;20108;-60
2021/01/13 03:12:26;;;;;;;87.13;38.47;;;0.20;2201.60;;;;;;5037054;28;20029;-60
2021/01/13 03:14:56;;;;;;;84.43;38.40;;;0.30;2201.60;;;;;;5036868;28;20037;-59
2021/01/13 03:17:34;;;;;;;89.85;40.20;;;0.30;2201.60;;;;;;5037135;28;20030;-59
2021/01/13 03:20:48;;;;;;;93.85;39.70;;;0.30;2201.60;;;;;;5037088;28;20032;-59
2021/01/13 03:23:23;;;;;;;89.32;38.90;;;0.40;2201.60;;;;;;4995247;28;20041;-60
2021/01/13 03:26:00;;;;;;;102.30;44.42;;;0.50;2201.60;;;;;;4995172;28;20081;-59
2021/01/13 03:28:37;;;;;;;104.82;43.40;;;0.50;2201.60;;;;;;4995156;28;20034;-60
2021/01/13 03:31:04;;;;;;;85.57;39.63;;;0.40;2201.60;;;;;;4978859;28;20419;-60
2021/01/13 03:34:03;;;;;;;89.07;38.88;;;0.50;2201.60;;;;;;4994966;28;20525;-60
2021/01/13 03:37:07;;;;;;;81.55;36.33;;;0.40;2201.60;;;;;;4994980;28;20050;-60
2021/01/13 03:39:36;;;;;;;96.03;38.92;;;0.50;2201.60;;;;;;4995044;28;20547;-60
2021/01/13 03:42:17;;;;;;;94.55;39.55;;;0.30;2201.60;;;;;;4994858;28;20177;-59
2021/01/13 03:44:46;;;;;;;92.80;41.00;;;0.40;2201.60;;;;;;4994908;28;20031;-60
2021/01/13 03:47:30;;;;;;;95.50;41.15;;;0.40;2201.60;;;;;;4994779;28;20416;-60
2021/01/13 03:50:10;;;;;;;89.55;40.25;;;0.40;2201.60;;;;;;4995087;28;20026;-60
2021/01/13 03:52:45;;;;;;;90.53;38.47;;;0.50;2201.60;;;;;;4994714;28;20038;-59
2021/01/13 03:55:11;;;;;;;89.25;37.42;;;0.50;2201.60;;;;;;4994618;28;20157;-60
2021/01/13 03:58:13;;;;;;;90.15;40.28;;;0.40;2201.60;;;;;;4994723;28;20061;-59
2021/01/13 04:01:04;;;;;;;95.43;39.40;;;0.40;2201.60;;;;;;4955812;29;20039;-59
2021/01/13 04:03:32;;;;;;;95.25;39.15;;;0.30;2201.60;;;;;;4956031;29;20031;-59
2021/01/13 04:06:10;;;;;;;101.03;41.38;;;0.30;2201.60;;;;;;4955914;29;20023;-59
2021/01/13 04:08:42;;;;;;;93.25;39.45;;;0.20;2201.60;;;;;;4955880;29;20039;-59
2021/01/13 04:11:15;;;;;;;92.47;37.85;;;0.20;2201.60;;;;;;4955982;29;20041;-59
2021/01/13 04:13:45;;;;;;;90.22;39.17;;;0.20;2201.60;;;;;;4955670;29;20429;-59
2021/01/13 04:16:12;;;;;;;93.32;39.30;;;0.10;2201.60;;;;;;4955234;29;20066;-59
2021/01/13 04:18:40;;;;;;;87.47;38.45;;;0.10;2201.60;;;;;;4955428;28;20468;-59
2021/01/13 04:21:07;;;;;;;95.03;40.20;;;0.20;2201.60;;;;;;4955328;29;20031;-59
2021/01/13 04:23:34;;;;;;;88.93;37.42;;;0.20;2201.60;;;;;;4955638;29;20074;-60
2021/01/13 04:26:00;;;;;;;88.30;38.95;;;0.20;2201.60;;;;;;4955853;29;20106;-60
2021/01/13 04:28:27;;;;;;;88.38;38.97;;;0.20;2201.60;;;;;;4955299;29;20031;-59
2021/01/13 04:30:54;;;;;;;91.53;36.85;;;0.20;2201.60;;;;;;4955379;29;20039;-60
2021/01/13 04:33:21;;;;;;;86.32;37.70;;;0.10;2201.60;;;;;;4954414;29;20059;-59
2021/01/13 04:35:47;;;;;;;84.63;38.35;;;0.10;2201.60;;;;;;4982532;28;20069;-60
2021/01/13 04:38:20;;;;;;;89.38;39.75;;;0.10;2201.60;;;;;;5035119;28;20108;-59
2021/01/13 04:40:50;;;;;;;89.15;38.80;;;0.00;2201.60;;;;;;5035205;28;20032;-59
2021/01/13 04:43:22;;;;;;;82.82;35.95;;;0.00;2201.60;;;;;;5035366;28;20026;-59
2021/01/13 04:45:49;;;;;;;77.85;34.38;;;0.10;2201.60;;;;;;5035084;28;20109;-59
2021/01/13 04:48:20;;;;;;;85.25;37.55;;;0.10;2201.60;;;;;;5034744;28;20065;-59
2021/01/13 04:50:51;;;;;;;85.93;37.25;;;0.20;2201.60;;;;;;5035234;28;20053;-59
2021/01/13 04:53:23;;;;;;;85.53;36.92;;;0.10;2201.60;;;;;;5034936;28;20514;-59
2021/01/13 04:55:51;;;;;;;89.65;38.65;;;0.20;2201.60;;;;;;5035104;28;20072;-59
2021/01/13 04:58:43;;;;;;;81.28;34.33;;;0.20;2201.60;;;;;;5035065;28;20048;-59
2021/01/13 05:01:28;;;;;;;82.30;37.58;;;0.20;2201.60;;;;;;5035036;28;20017;-59
2021/01/13 05:04:07;;;;;;;90.60;40.85;;;0.30;2201.60;;;;;;5034967;28;20048;-59
2021/01/13 05:07:10;;;;;;;96.50;41.38;;;0.40;2201.60;;;;;;5034685;28;20475;-59
2021/01/13 05:09:59;;;;;;;152.68;70.13;;;0.30;2201.60;;;;;;4993310;28;20070;-59
2021/01/13 05:12:49;;;;;;;173.63;80.28;;;0.40;2201.60;;;;;;4993338;28;20038;-59
2021/01/13 05:15:16;;;;;;;132.77;59.15;;;0.40;2201.60;;;;;;4993380;28;20570;-60
2021/01/13 05:18:05;;;;;;;118.47;54.20;;;0.40;2201.60;;;;;;4993540;28;20575;-59
2021/01/13 05:20:33;;;;;;;107.38;50.15;;;0.50;2201.60;;;;;;4993014;28;20035;-59
2021/01/13 05:22:59;;;;;;;123.88;56.63;;;0.50;2201.60;;;;;;4993288;28;20050;-59
2021/01/13 05:25:44;;;;;;;126.50;58.00;;;0.50;2201.60;;;;;;4992981;28;20029;-59
2021/01/13 05:28:14;;;;;;;120.95;53.38;;;0.40;2201.60;;;;;;4993285;28;20046;-60
2021/01/13 05:30:59;;;;;;;125.10;54.10;;;0.40;2201.60;;;;;;4992375;28;20062;-60
2021/01/13 05:33:29;;;;;;;116.15;54.08;;;0.40;2201.60;;;;;;4992727;28;20436;-59
2021/01/13 05:35:57;;;;;;;129.43;61.17;;;0.30;2201.60;;;;;;4992634;28;20026;-60
2021/01/13 05:38:40;;;;;;;96.07;40.22;;;0.30;2201.60;;;;;;4992706;28;20042;-59
2021/01/13 05:41:10;;;;;;;110.60;49.00;;;0.30;2201.60;;;;;;4992929;28;20041;-59
2021/01/13 05:43:45;;;;;;;121.50;54.92;;;0.20;2201.60;;;;;;4992859;28;20191;-59
2021/01/13 05:46:12;;;;;;;128.65;59.70;;;0.20;2201.60;;;;;;5009661;28;20040;-59
2021/01/13 05:48:40;;;;;;;178.88;80.57;;;0.30;2201.60;;;;;;5034111;28;20045;-59
2021/01/13 05:51:07;;;;;;;111.95;51.42;;;0.20;2201.60;;;;;;5034019;28;20031;-59
2021/01/13 05:53:33;;;;;;;113.88;42.45;;;0.20;2201.60;;;;;;5033528;28;20036;-59
2021/01/13 05:56:02;;;;;;;122.65;46.40;;;0.20;2201.60;;;;;;5033696;28;20033;-59
2021/01/13 05:58:29;;;;;;;131.68;43.90;;;0.20;2201.60;;;;;;5034155;28;20037;-59
2021/01/13 06:00:57;;;;;;;144.57;48.38;;;0.20;2201.60;;;;;;5033661;28;20017;-60
2021/01/13 06:03:29;;;;;;;130.20;46.70;;;0.20;2201.60;;;;;;5015697;28;20052;-59
2021/01/13 06:05:57;;;;;;;122.07;45.60;;;0.10;2201.60;;;;;;5034183;28;20100;-59
2021/01/13 06:08:32;;;;;;;112.45;41.63;;;0.20;2201.60;;;;;;5033697;28;20084;-59
2021/01/13 06:11:02;;;;;;;107.43;39.80;;;0.20;2201.60;;;;;;5033963;28;20158;-59
2021/01/13 06:13:35;;;;;;;112.45;40.60;;;0.20;2201.60;;;;;;5033776;28;20037;-60
2021/01/13 06:16:03;;;;;;;101.85;39.30;;;0.20;2201.60;;;;;;5033689;28;20056;-59
2021/01/13 06:18:30;;;;;;;90.28;36.42;;;0.20;2201.60;;;;;;5033828;28;20029;-59
2021/01/13 06:20:58;;;;;;;92.03;40.28;;;0.10;2201.60;;;;;;5034083;28;20021;-60
2021/01/13 06:23:27;;;;;;;92.00;40.95;;;0.10;2201.60;;;;;;5034023;28;20097;-60
2021/01/13 06:25:54;;;;;;;76.90;35.75;;;0.10;2201.60;;;;;;5033828;28;20079;-59
2021/01/13 06:28:23;;;;;;;80.95;37.08;;;0.10;2201.60;;;;;;5033498;28;20033;-60
2021/01/13 06:31:07;;;;;;;77.47;35.10;;;0.10;2201.60;;;;;;5033704;28;20065;-60
2021/01/13 06:33:58;;;;;;;83.72;38.50;;;0.00;2201.60;;;;;;5033509;28;20399;-59
2021/01/13 06:36:43;;;;;;;74.60;33.55;;;0.10;2201.60;;;;;;4992170;28;20059;-60
2021/01/13 06:39:10;;;;;;;80.22;36.80;;;0.10;2201.60;;;;;;4992107;28;20054;-59
2021/01/13 06:41:48;;;;;;;80.20;36.30;;;0.10;2201.60;;;;;;4993415;28;20353;-59
2021/01/13 06:44:16;;;;;;;79.90;36.47;;;0.10;2201.60;;;;;;4996186;28;20030;-59
2021/01/13 06:46:42;;;;;;;82.20;35.58;;;0.20;2201.60;;;;;;4995854;28;20033;-59
2021/01/13 06:49:15;;;;;;;78.10;35.97;;;0.30;2201.60;;;;;;4995958;28;20117;-60
2021/01/13 06:51:45;;;;;;;85.80;36.50;;;0.40;2201.60;;;;;;4995900;28;20426;-59
2021/01/13 06:54:13;;;;;;;82.80;38.45;;;0.50;2201.60;;;;;;4995870;28;20034;-59
2021/01/13 06:56:50;;;;;;;74.47;34.10;;;0.60;2201.60;;;;;;4995887;28;20032;-59
2021/01/13 06:59:17;;;;;;;114.43;46.25;;;0.70;2201.60;;;;;;4995997;28;20026;-59
2021/01/13 07:01:53;;;;;;;167.85;55.60;;;0.80;2201.60;;;;;;4995758;28;20026;-60
2021/01/13 07:04:20;;;;;;;147.38;49.35;;;0.90;2201.60;;;;;;4995979;28;20034;-59
2021/01/13 07:07:05;;;;;;;142.65;51.47;;;0.90;2201.60;;;;;;4995317;28;20037;-59
2021/01/13 07:09:39;;;;;;;125.72;46.30;;;0.90;2201.60;;;;;;4995629;28;20026;-59
2021/01/13 07:12:11;;;;;;;119.53;46.97;;;0.90;2201.60;;;;;;4995564;28;20492;-60
2021/01/13 07:14:39;;;;;;;117.40;47.53;;;25.60;2201.60;;;;;;5036788;28;20022;-59
2021/01/13 07:17:08;;;;;;;105.22;45.72;;;25.60;2201.60;;;;;;5036820;28;20018;-59
2021/01/13 07:19:35;;;;;;;89.13;38.28;;;25.60;2201.60;;;;;;5036825;28;20437;-59
2021/01/13 07:22:01;;;;;;;94.15;42.17;;;25.70;2201.60;;;;;;5036752;28;20025;-60
2021/01/13 07:24:28;;;;;;;87.68;38.88;;;25.70;2201.60;;;;;;5036813;28;20051;-59
2021/01/13 07:26:57;;;;;;;79.65;36.13;;;25.80;2201.60;;;;;;5036650;28;20033;-60
2021/01/13 07:29:27;;;;;;;71.88;34.67;;;25.80;2201.60;;;;;;5036783;28;20041;-59
2021/01/13 07:31:58;;;;;;;103.60;46.97;;;25.80;2201.60;;;;;;5018540;28;20050;-60
2021/01/13 07:34:30;;;;;;;79.03;37.17;;;26.10;2201.60;;;;;;5036186;28;20045;-62
2021/01/13 07:37:02;;;;;;;75.45;35.63;;;26.20;2201.60;;;;;;5036601;28;20022;-59
2021/01/13 07:39:43;;;;;;;71.65;33.35;;;26.40;2201.60;;;;;;5036501;28;20079;-60
2021/01/13 07:42:28;;;;;;;71.60;32.95;;;26.40;2201.60;;;;;;5036517;28;20079;-61
2021/01/13 07:45:04;;;;;;;68.85;31.60;;;51.20;2227.20;;;;;;5036527;28;20071;-59
2021/01/13 07:47:50;;;;;;;64.72;31.92;;;51.30;2227.20;;;;;;5036296;28;20040;-59
2021/01/13 07:50:17;;;;;;;105.95;47.40;;;51.20;2227.20;;;;;;5036017;28;20040;-60
2021/01/13 07:52:47;;;;;;;104.93;45.78;;;26.50;2201.60;;;;;;5035512;28;20467;-59
2021/01/13 07:55:21;;;;;;;77.50;39.53;;;51.20;2227.20;;;;;;5036327;28;20017;-60
2021/01/13 07:57:49;;;;;;;78.13;38.20;;;51.20;2227.20;;;;;;5036296;28;20033;-59
2021/01/13 08:00:33;;;;;;;93.43;46.85;;;51.40;2227.20;;;;;;5036104;28;20376;-60
2021/01/13 08:03:17;;;;;;;63.30;31.70;;;51.50;2227.20;;;;;;5036219;28;20135;-59
2021/01/13 08:06:20;;;;;;;63.47;34.83;;;103.00;2099.20;;;;;;5036082;28;20467;-59
2021/01/13 08:09:09;;;;;;;63.50;35.00;;;128.60;1971.20;;;;;;5036102;28;20036;-60
2021/01/13 08:11:58;;;;;;;52.75;30.38;;;204.90;1638.40;;;;;;5036093;28;20025;-60
2021/01/13 08:14:38;;;;;;;63.70;36.22;;;205.50;1510.40;;;;;;5035905;28;20044;-57
2021/01/13 08:17:39;;;;;;;71.43;39.20;;;180.00;1612.80;;;;;;5035697;28;20116;-59
2021/01/13 08:20:23;;;;;;;77.82;41.40;;;154.20;1766.40;;;;;;5035914;28;20041;-59
2021/01/13 08:22:59;;;;;;;96.93;50.50;;;128.60;1894.40;;;;;;5035738;28;20402;-61
2021/01/13 08:25:27;;;;;;;88.82;45.90;;;128.10;1945.60;;;;;;5035838;28;20064;-59
2021/01/13 08:27:57;;;;;;;84.57;44.38;;;128.10;1971.20;;;;;;5035653;28;20038;-60
2021/01/13 08:30:27;;;;;;;144.50;64.15;;;128.30;1945.60;;;;;;5035645;28;20049;-59
2021/01/13 08:32:55;;;;;;;55.55;31.52;;;153.60;1894.40;;;;;;5035403;28;20386;-59
2021/01/13 08:35:33;;;;;;;105.45;52.08;;;205.00;1587.20;;;;;;5035517;28;20037;-59
2021/01/13 08:38:10;;;;;;;160.43;76.45;;;205.50;1561.60;;;;;;5035541;28;20025;-60
2021/01/13 08:40:37;;;;;;;153.50;82.80;;;230.60;1459.20;;;;;;5035413;28;20029;-58
2021/01/13 08:43:17;;;;;;;193.35;105.57;;;230.60;1433.60;;;;;;5035530;28;20029;-56
2021/01/13 08:45:44;;;;;;;84.10;50.28;;;205.70;1484.80;;;;;;5017502;28;20018;-57
2021/01/13 08:48:10;;;;;;;69.05;38.55;;;205.70;1484.80;;;;;;5035194;28;20037;-57
2021/01/13 08:50:37;;;;;;;113.72;59.03;;;205.40;1510.40;;;;;;5035101;28;20040;-56
2021/01/13 08:53:04;;;;;;;97.13;52.35;;;205.00;1561.60;;;;;;5034922;28;20059;-57
2021/01/13 08:55:31;;;;;;;117.25;62.65;;;180.00;1612.80;;;;;;5034938;28;20030;-59
2021/01/13 08:58:05;;;;;;;94.13;55.70;;;179.30;1689.60;;;;;;5034707;28;20053;-59
2021/01/13 09:00:32;;;;;;;72.20;44.87;;;154.40;1740.80;;;;;;5035024;28;20022;-59
2021/01/13 09:03:25;;;;;;;126.72;63.50;;;154.00;1792.00;;;;;;5034775;28;20025;-59
2021/01/13 09:05:55;;;;;;;180.45;89.07;;;128.90;1843.20;;;;;;5034380;28;20053;-59
2021/01/13 09:08:31;;;;;;;174.60;78.78;;;128.30;1920.00;;;;;;5034606;28;20087;-60
2021/01/13 09:10:57;;;;;;;226.48;91.35;;;128.10;1945.60;;;;;;5034977;28;20025;-59
2021/01/13 09:13:36;;;;;;;237.23;117.22;;;128.00;1996.80;;;;;;5017209;28;20033;-59
2021/01/13 09:16:26;;;;;;;325.00;127.03;;;103.30;1971.20;;;;;;5034666;28;20037;-60
2021/01/13 09:19:00;;;;;;;226.18;91.47;;;153.70;1868.80;;;;;;5034569;28;20025;-59
2021/01/13 09:21:30;;;;;;;283.55;116.35;;;205.60;1561.60;;;;;;5034564;28;20029;-60
2021/01/13 09:23:57;;;;;;;165.32;87.90;;;281.70;1305.60;;;;;;5034626;28;20402;-60
2021/01/13 09:26:32;;;;;;;149.02;72.43;;;333.10;1177.60;;;;;;5016534;28;20033;-57
2021/01/13 09:29:07;;;;;;;265.20;136.52;;;359.10;998.40;;;;;;5034161;28;20037;-58
2021/01/13 09:31:33;;;;;;;408.73;205.75;;;410.20;896.00;;;;;;5034263;28;20057;-57
2021/01/13 09:33:59;;;;;;;244.95;117.70;;;461.00;819.20;;;;;;5034479;28;20049;-57
2021/01/13 09:36:26;;;;;;;328.63;161.27;;;486.60;716.80;;;;;;5034582;28;20021;-57
2021/01/13 09:39:10;;;;;;;222.68;107.80;;;512.00;691.20;;;;;;5034368;28;20081;-57
2021/01/13 09:41:40;;;;;;;108.07;61.40;;;538.00;640.00;;;;;;5033996;28;20037;-57
2021/01/13 09:44:12;;;;;;;82.28;57.60;;;564.00;614.40;;;;;;5034045;28;20021;-57
2021/01/13 09:46:38;;;;;;;121.82;82.47;;;589.10;537.60;;;;;;5032615;28;20041;-57
2021/01/13 09:49:09;;;;;;;84.53;54.75;;;589.30;537.60;;;;;;5034039;28;20068;-58
2021/01/13 09:51:37;;;;;;;81.57;52.70;;;614.40;486.40;;;;;;5034252;28;20402;-57
2021/01/13 09:54:04;;;;;;;136.25;90.85;;;615.00;460.80;;;;;;5033940;28;20482;-58
2021/01/13 09:56:33;;;;;;;130.63;94.82;;;614.80;486.40;;;;;;5034051;28;20049;-57
2021/01/13 09:59:03;;;;;;;72.97;50.78;;;640.40;435.20;;;;;;5033933;28;20025;-57
2021/01/13 10:01:35;;;;;;;54.22;41.85;;;640.70;409.60;;;;;;5033967;28;20032;-58
2021/01/13 10:04:12;;;;;;;39.40;31.23;;;666.10;409.60;;;;;;5033955;28;20022;-58
2021/01/13 10:06:42;;;;;;;33.30;26.38;;;640.80;409.60;;;;;;5033762;28;20029;-58
2021/01/13 10:09:13;;;;;;;30.63;24.17;;;666.50;384.00;;;;;;5033946;28;20103;-57
2021/01/13 10:11:40;;;;;;;26.50;21.88;;;691.70;332.80;;;;;;5033465;28;20356;-58
2021/01/13 10:14:08;;;;;;;27.45;23.42;;;691.40;332.80;;;;;;5033859;28;20018;-58
2021/01/13 10:16:43;;;;;;;25.33;21.63;;;717.20;332.80;;;;;;5033888;28;20026;-58
2021/01/13 10:19:10;;;;;;;27.77;24.73;;;742.70;307.20;;;;;;5033698;28;20029;-58
2021/01/13 10:21:37;;;;;;;31.67;26.80;;;768.50;281.60;;;;;;5033608;28;20033;-58
2021/01/13 10:24:10;;;;;;;23.35;19.70;;;794.00;256.00;;;;;;5033919;28;20014;-57
2021/01/13 10:26:41;;;;;;;21.02;17.98;;;793.70;256.00;;;;;;5033676;28;20203;-58
2021/01/13 10:29:08;;;;;;;20.77;18.52;;;793.80;256.00;;;;;;5033572;28;20103;-58
2021/01/13 10:31:35;;;;;;;18.05;15.32;;;819.20;230.40;;;;;;5033258;28;20068;-58
2021/01/13 10:34:02;;;;;;;21.55;17.83;;;819.60;230.40;;;;;;5033798;28;20029;-58
2021/01/13 10:36:44;;;;;;;22.15;19.77;;;819.80;230.40;;;;;;5033651;28;20105;-58
2021/01/13 10:39:10;;;;;;;18.67;16.67;;;844.80;256.00;;;;;;5033366;28;20030;-58
2021/01/13 10:41:41;;;;;;;26.98;24.08;;;845.30;256.00;;;;;;5033546;28;20052;-58
2021/01/13 10:44:15;;;;;;;67.93;55.13;;;845.20;256.00;;;;;;5033512;28;20034;-57
2021/01/13 10:46:43;;;;;;;33.78;29.77;;;845.70;256.00;;;;;;5033183;28;20057;-59
2021/01/13 10:49:46;;;;;;;61.83;48.97;;;820.10;230.40;;;;;;5033606;28;20025;-57
2021/01/13 10:52:15;;;;;;;105.38;59.30;;;845.00;256.00;;;;;;4991870;28;20035;-58
2021/01/13 10:54:43;;;;;;;77.25;56.65;;;819.50;230.40;;;;;;4991991;28;20046;-60
2021/01/13 10:57:11;;;;;;;38.47;33.00;;;793.60;230.40;;;;;;4991677;28;20038;-59
2021/01/13 10:59:38;;;;;;;50.25;40.25;;;768.10;230.40;;;;;;4992275;28;20194;-59
2021/01/13 11:02:04;;;;;;;30.58;24.52;;;717.30;281.60;;;;;;4992233;28;20026;-56
2021/01/13 11:04:30;;;;;;;55.28;42.53;;;717.30;281.60;;;;;;4991979;28;20030;-59
2021/01/13 11:06:58;;;;;;;37.88;30.75;;;717.10;281.60;;;;;;4991816;28;20080;-58
2021/01/13 11:09:25;;;;;;;58.65;37.17;;;716.90;307.20;;;;;;4991767;28;20034;-59
2021/01/13 11:11:52;;;;;;;99.20;53.00;;;691.80;307.20;;;;;;4991268;28;20427;-59
2021/01/13 11:14:43;;;;;;;73.10;41.92;;;717.40;281.60;;;;;;4991709;28;20026;-57
2021/01/13 11:17:14;;;;;;;48.80;32.58;;;742.40;281.60;;;;;;4991858;28;20042;-58
2021/01/13 11:19:43;;;;;;;58.72;37.53;;;716.80;307.20;;;;;;4991971;28;20026;-60
2021/01/13 11:22:09;;;;;;;42.08;30.02;;;665.70;358.40;;;;;;4991767;28;20069;-59
2021/01/13 11:24:42;;;;;;;49.15;38.38;;;665.80;358.40;;;;;;4991800;28;20031;-57
2021/01/13 11:27:16;;;;;;;64.65;46.78;;;665.60;358.40;;;;;;4992056;28;20034;-57
2021/01/13 11:29:45;;;;;;;48.25;34.28;;;666.30;332.80;;;;;;5029085;28;20111;-58
2021/01/13 11:32:14;;;;;;;51.42;35.75;;;640.10;384.00;;;;;;5036375;28;20048;-57
2021/01/13 11:34:51;;;;;;;55.05;39.13;;;589.60;435.20;;;;;;5036609;28;20100;-57
2021/01/13 11:37:21;;;;;;;56.95;37.60;;;640.90;332.80;;;;;;5036313;28;20036;-57
2021/01/13 11:40:11;;;;;;;66.65;45.60;;;666.40;332.80;;;;;;5036640;28;20022;-57
2021/01/13 11:42:45;;;;;;;42.85;31.60;;;640.50;358.40;;;;;;5036330;28;20038;-59
2021/01/13 11:45:17;;;;;;;55.00;37.17;;;640.10;358.40;;;;;;5036491;28;20045;-57
2021/01/13 11:47:49;;;;;;;32.75;25.30;;;666.20;307.20;;;;;;5036277;28;20044;-57
2021/01/13 11:50:20;;;;;;;28.90;21.67;;;666.50;281.60;;;;;;5036258;28;20022;-57
2021/01/13 11:52:49;;;;;;;66.40;42.50;;;691.60;281.60;;;;;;5036226;28;20049;-58
2021/01/13 11:55:15;;;;;;;61.42;38.83;;;742.60;256.00;;;;;;5036600;28;20451;-58
2021/01/13 11:57:50;;;;;;;40.28;29.00;;;742.50;256.00;;;;;;5036182;28;20026;-57
2021/01/13 12:00:27;;;;;;;25.13;20.25;;;717.30;256.00;;;;;;5035953;28;20024;-57
2021/01/13 12:02:58;;;;;;;91.65;56.83;;;716.80;281.60;;;;;;5018311;28;20032;-58
2021/01/13 12:05:30;;;;;;;53.67;39.72;;;742.90;230.40;;;;;;5036088;28;20048;-57
2021/01/13 12:08:17;;;;;;;42.05;30.95;;;768.00;230.40;;;;;;5035701;28;20041;-58
2021/01/13 12:10:43;;;;;;;53.70;39.70;;;717.30;256.00;;;;;;5035765;28;20021;-59
2021/01/13 12:13:18;;;;;;;32.33;24.00;;;743.10;230.40;;;;;;5035785;28;20029;-58
2021/01/13 12:15:46;;;;;;;35.97;26.77;;;742.60;256.00;;;;;;5035962;28;20383;-62
2021/01/13 12:18:22;;;;;;;29.95;22.10;;;742.60;256.00;;;;;;5035796;28;20025;-60
2021/01/13 12:20:52;;;;;;;41.30;28.70;;;742.90;230.40;;;;;;5035800;28;20025;-59
2021/01/13 12:23:35;;;;;;;36.38;26.55;;;743.10;256.00;;;;;;5035755;28;20391;-57
2021/01/13 12:26:19;;;;;;;51.53;34.28;;;768.10;230.40;;;;;;5035551;28;20463;-59
2021/01/13 12:28:48;;;;;;;29.27;20.13;;;768.50;204.80;;;;;;5035626;28;20038;-59
2021/01/13 12:31:15;;;;;;;34.70;22.92;;;793.80;230.40;;;;;;5035464;28;20030;-57
2021/01/13 12:33:52;;;;;;;39.72;25.42;;;794.10;230.40;;;;;;5035574;28;20434;-61
2021/01/13 12:36:37;;;;;;;21.38;17.02;;;819.50;230.40;;;;;;5035308;28;20067;-58